createdAt,value
2018-08-03T00:00:16.688Z,24.80
2018-08-03T00:02:46.478Z,24.70
2018-08-03T00:07:45.345Z,24.60
2018-08-03T00:10:14.939Z,24.60
2018-08-03T00:12:44.593Z,24.60
2018-08-03T00:15:14.260Z,24.50
2018-08-03T00:17:43.946Z,24.50
2018-08-03T00:20:13.588Z,24.50
2018-08-03T00:22:43.168Z,24.40
2018-08-03T00:25:12.874Z,24.40
2018-08-03T00:27:42.449Z,24.30
2018-08-03T00:30:12.059Z,24.30
2018-08-03T00:32:41.613Z,24.30
2018-08-03T00:35:11.271Z,24.20
2018-08-03T00:37:40.975Z,24.20
2018-08-03T00:40:10.507Z,24.20
2018-08-03T00:42:40.057Z,24.20
2018-08-03T00:45:09.613Z,24.10
2018-08-03T00:47:39.348Z,24.10
2018-08-03T00:50:08.966Z,24.10
2018-08-03T00:52:38.446Z,24.10
2018-08-03T00:55:08.058Z,24.00
2018-08-03T00:57:37.670Z,24.00
2018-08-03T01:00:07.452Z,24.00
2018-08-03T01:02:37.113Z,23.90
2018-08-03T01:05:06.875Z,23.90
2018-08-03T01:07:36.446Z,23.90
2018-08-03T01:10:06.501Z,23.80
2018-08-03T01:12:36.094Z,23.80
2018-08-03T01:15:06.601Z,23.80
2018-08-03T01:17:36.246Z,23.70
2018-08-03T01:20:06.398Z,23.70
2018-08-03T01:22:36.046Z,23.70
2018-08-03T01:25:06.778Z,23.70
2018-08-03T01:27:36.410Z,23.60
2018-08-03T01:32:36.029Z,23.60
2018-08-03T01:35:05.870Z,23.50
2018-08-03T01:37:35.473Z,23.50
2018-08-03T01:40:05.837Z,23.50
2018-08-03T01:42:35.403Z,23.50
2018-08-03T01:45:05.142Z,23.40
2018-08-03T01:47:34.785Z,23.40
2018-08-03T01:50:04.537Z,23.30
2018-08-03T01:52:34.281Z,23.30
2018-08-03T01:55:04.097Z,23.30
2018-08-03T01:57:33.807Z,23.20
2018-08-03T02:00:03.479Z,23.20
2018-08-03T02:05:02.634Z,23.20
2018-08-03T02:07:32.387Z,23.10
2018-08-03T02:10:01.985Z,23.10
2018-08-03T02:12:31.738Z,23.00
2018-08-03T02:15:01.410Z,23.00
2018-08-03T02:17:30.990Z,22.90
2018-08-03T02:20:00.734Z,22.90
2018-08-03T02:22:30.426Z,22.90
2018-08-03T02:25:00.061Z,22.90
2018-08-03T02:27:29.668Z,22.80
2018-08-03T02:29:59.254Z,22.80
2018-08-03T02:32:28.842Z,22.80
2018-08-03T02:34:58.474Z,22.80
2018-08-03T02:37:28.144Z,22.80
2018-08-03T02:39:57.808Z,22.80
2018-08-03T02:42:27.415Z,22.80
2018-08-03T02:44:56.982Z,22.70
2018-08-03T02:47:26.537Z,22.70
2018-08-03T02:49:56.138Z,22.60
2018-08-03T02:52:25.719Z,22.60
2018-08-03T02:54:55.560Z,22.60
2018-08-03T02:57:25.232Z,22.60
2018-08-03T02:59:55.007Z,22.60
2018-08-03T03:02:24.684Z,22.50
2018-08-03T03:04:54.231Z,22.50
2018-08-03T03:07:23.850Z,22.50
2018-08-03T03:09:53.462Z,22.50
2018-08-03T03:12:23.312Z,22.40
2018-08-03T03:14:53.022Z,22.40
2018-08-03T03:17:22.686Z,22.40
2018-08-03T03:19:52.256Z,22.30
2018-08-03T03:22:21.890Z,22.30
2018-08-03T03:24:51.502Z,22.30
2018-08-03T03:27:21.101Z,22.20
2018-08-03T03:29:50.816Z,22.20
2018-08-03T03:32:20.426Z,22.20
2018-08-03T03:34:50.113Z,22.20
2018-08-03T03:37:19.722Z,22.10
2018-08-03T03:39:49.384Z,22.10
2018-08-03T03:42:19.141Z,22.10
2018-08-03T03:44:48.833Z,22.10
2018-08-03T03:47:18.477Z,22.00
2018-08-03T03:49:48.092Z,22.00
2018-08-03T03:52:17.734Z,22.00
2018-08-03T03:54:47.329Z,22.00
2018-08-03T03:57:17.061Z,22.00
2018-08-03T03:59:46.736Z,22.00
2018-08-03T04:02:16.394Z,22.00
2018-08-03T04:04:45.929Z,22.00
2018-08-03T04:07:15.658Z,21.90
2018-08-03T04:09:45.275Z,21.90
2018-08-03T04:12:14.894Z,21.80
2018-08-03T04:17:13.722Z,21.80
2018-08-03T04:19:43.355Z,21.80
2018-08-03T04:22:13.126Z,21.80
2018-08-03T04:24:42.922Z,21.70
2018-08-03T04:27:12.614Z,21.70
2018-08-03T04:29:42.362Z,21.70
2018-08-03T04:32:12.022Z,21.70
2018-08-03T04:34:41.627Z,21.60
2018-08-03T04:37:11.458Z,21.60
2018-08-03T04:39:41.226Z,21.70
2018-08-03T04:42:10.988Z,21.70
2018-08-03T04:44:40.481Z,21.70
2018-08-03T04:47:10.148Z,21.70
2018-08-03T04:49:39.869Z,21.70
2018-08-03T04:52:09.557Z,21.70
2018-08-03T04:54:39.309Z,21.70
2018-08-03T04:57:09.057Z,21.70
2018-08-03T04:59:38.737Z,21.70
2018-08-03T05:02:08.475Z,21.70
2018-08-03T05:04:38.203Z,21.70
2018-08-03T05:07:07.782Z,21.70
2018-08-03T05:09:37.402Z,21.70
2018-08-03T05:12:06.968Z,21.70
2018-08-03T05:14:36.629Z,21.80
2018-08-03T05:17:06.281Z,21.80
2018-08-03T05:19:35.806Z,21.90
2018-08-03T05:22:05.408Z,22.00
2018-08-03T05:24:35.029Z,22.10
2018-08-03T05:27:04.746Z,22.20
2018-08-03T05:29:34.441Z,22.30
2018-08-03T05:32:04.020Z,22.40
2018-08-03T05:34:33.780Z,22.50
2018-08-03T05:37:03.714Z,22.60
2018-08-03T05:39:33.490Z,22.70
2018-08-03T05:45:36.060Z,23.00
2018-08-03T05:48:05.673Z,23.10
2018-08-03T05:50:35.237Z,23.20
2018-08-03T05:53:04.932Z,23.30
2018-08-03T05:55:34.563Z,23.50
2018-08-03T05:58:04.412Z,23.60
2018-08-03T06:00:34.077Z,23.70
2018-08-03T06:03:03.674Z,23.90
2018-08-03T06:05:33.526Z,24.00
2018-08-03T06:08:03.209Z,24.20
2018-08-03T06:10:32.734Z,24.30
2018-08-03T06:13:02.264Z,24.40
2018-08-03T06:15:32.030Z,24.50
2018-08-03T06:18:01.694Z,24.60
2018-08-03T06:20:31.442Z,24.70
2018-08-03T06:23:01.212Z,24.80
2018-08-03T06:25:30.915Z,24.90
2018-08-03T06:28:00.460Z,25.00
2018-08-03T06:30:30.197Z,25.10
2018-08-03T06:32:59.789Z,25.20
2018-08-03T06:35:29.429Z,25.30
2018-08-03T06:37:59.093Z,25.40
2018-08-03T06:40:28.697Z,25.50
2018-08-03T06:42:58.339Z,25.50
2018-08-03T06:45:27.988Z,25.60
2018-08-03T06:47:57.695Z,25.70
2018-08-03T06:50:27.382Z,25.80
2018-08-03T06:52:56.877Z,26.00
2018-08-03T06:55:26.391Z,26.20
2018-08-03T06:57:55.943Z,26.40
2018-08-03T07:00:25.539Z,26.50
2018-08-03T07:02:55.165Z,26.70
2018-08-03T07:05:24.857Z,26.80
2018-08-03T07:07:54.501Z,27.00
2018-08-03T07:10:24.235Z,27.20
2018-08-03T07:12:54.309Z,27.40
2018-08-03T07:15:24.004Z,27.70
2018-08-03T07:17:53.793Z,27.90
2018-08-03T07:20:23.792Z,28.20
2018-08-03T07:25:22.836Z,28.70
2018-08-03T07:27:52.560Z,29.00
2018-08-03T07:30:22.331Z,29.20
2018-08-03T07:32:51.954Z,29.40
2018-08-03T07:35:21.650Z,29.60
2018-08-03T07:37:51.414Z,29.70
2018-08-03T07:40:21.221Z,29.90
2018-08-03T07:42:50.851Z,30.00
2018-08-03T07:45:20.555Z,30.10
2018-08-03T07:47:50.287Z,30.20
2018-08-03T07:50:19.923Z,30.30
2018-08-03T07:52:49.383Z,30.50
2018-08-03T07:55:18.915Z,30.60
2018-08-03T07:57:48.468Z,30.80
2018-08-03T08:00:18.097Z,31.00
2018-08-03T08:02:47.769Z,31.20
2018-08-03T08:05:17.497Z,31.50
2018-08-03T08:07:47.109Z,31.70
2018-08-03T08:10:16.739Z,32.00
2018-08-03T08:12:46.407Z,32.10
2018-08-03T08:15:16.204Z,32.30
2018-08-03T08:17:45.660Z,32.30
2018-08-03T08:20:15.190Z,32.50
2018-08-03T08:22:44.802Z,32.60
2018-08-03T08:25:14.458Z,32.70
2018-08-03T08:27:44.046Z,32.90
2018-08-03T08:30:13.786Z,33.10
2018-08-03T08:32:43.401Z,33.30
2018-08-03T08:35:12.969Z,33.50
2018-08-03T08:37:42.610Z,33.70
2018-08-03T08:40:12.217Z,33.80
2018-08-03T08:42:41.887Z,33.90
2018-08-03T08:45:11.851Z,34.10
2018-08-03T08:47:41.525Z,34.20
2018-08-03T08:50:11.489Z,34.30
2018-08-03T08:52:41.025Z,34.40
2018-08-03T08:55:10.549Z,34.50
2018-08-03T09:00:09.560Z,34.70
2018-08-03T09:02:39.001Z,34.80
2018-08-03T09:05:08.649Z,34.90
2018-08-03T09:07:38.305Z,35.00
2018-08-03T09:10:07.877Z,35.10
2018-08-03T09:12:37.305Z,35.20
2018-08-03T09:15:06.775Z,35.30
2018-08-03T09:17:36.265Z,35.30
2018-08-03T09:20:06.345Z,35.50
2018-08-03T09:25:05.164Z,36.00
2018-08-03T09:27:34.621Z,36.20
2018-08-03T09:30:04.205Z,36.30
2018-08-03T09:32:33.915Z,36.50
2018-08-03T09:35:03.542Z,36.70
2018-08-03T09:37:33.565Z,36.80
2018-08-03T09:40:03.271Z,37.00
2018-08-03T09:43:36.294Z,37.10
2018-08-03T09:46:05.882Z,37.20
2018-08-03T09:48:35.508Z,37.30
2018-08-03T09:51:05.118Z,37.30
2018-08-03T09:53:34.719Z,37.40
2018-08-03T09:56:04.395Z,37.50
2018-08-03T09:58:33.907Z,37.70
2018-08-03T10:01:08.802Z,37.80
2018-08-03T10:03:38.534Z,38.00
2018-08-03T10:06:08.367Z,38.10
2018-08-03T10:08:38.208Z,38.30
2018-08-03T10:11:08.398Z,38.40
2018-08-03T10:13:38.140Z,38.40
2018-08-03T10:16:07.709Z,38.50
2018-08-03T10:18:37.217Z,38.50
2018-08-03T10:21:07.122Z,38.50
2018-08-03T10:26:06.116Z,38.60
2018-08-03T10:28:35.817Z,38.70
2018-08-03T10:31:05.401Z,38.80
2018-08-03T10:33:35.068Z,38.90
2018-08-03T10:36:04.718Z,39.00
2018-08-03T10:38:34.430Z,39.00
2018-08-03T10:41:04.079Z,39.10
2018-08-03T10:43:33.638Z,39.20
2018-08-03T10:46:03.344Z,39.20
2018-08-03T10:48:33.044Z,39.30
2018-08-03T10:51:02.691Z,39.40
2018-08-03T10:53:32.328Z,39.60
2018-08-03T10:56:02.031Z,39.80
2018-08-03T10:58:31.743Z,40.10
2018-08-03T11:01:01.234Z,40.30
2018-08-03T11:03:30.822Z,40.50
2018-08-03T11:06:00.529Z,40.70
2018-08-03T11:08:30.108Z,40.90
2018-08-03T11:10:59.841Z,40.90
2018-08-03T11:13:29.528Z,41.10
2018-08-03T11:16:00.123Z,41.10
2018-08-03T11:18:29.867Z,41.20
2018-08-03T11:20:59.593Z,41.20
2018-08-03T11:23:29.167Z,41.30
2018-08-03T11:25:58.927Z,41.30
2018-08-03T11:30:57.795Z,41.30
2018-08-03T11:33:27.470Z,41.40
2018-08-03T11:35:57.215Z,41.40
2018-08-03T11:38:26.923Z,41.50
2018-08-03T11:40:56.842Z,41.60
2018-08-03T11:43:26.403Z,41.70
2018-08-03T11:45:56.200Z,41.80
2018-08-03T11:48:25.779Z,42.00
2018-08-03T11:50:55.366Z,42.10
2018-08-03T11:53:25.005Z,42.10
2018-08-03T11:55:54.586Z,42.10
2018-08-03T11:58:24.242Z,42.10
2018-08-03T12:00:53.860Z,42.10
2018-08-03T12:03:23.685Z,42.10
2018-08-03T12:05:53.453Z,42.10
2018-08-03T12:08:23.097Z,42.10
2018-08-03T12:10:52.785Z,42.10
2018-08-03T12:13:22.397Z,42.20
2018-08-03T12:15:52.104Z,42.10
2018-08-03T12:18:21.749Z,42.10
2018-08-03T12:20:51.393Z,42.00
2018-08-03T12:23:21.136Z,42.00
2018-08-03T12:25:50.734Z,42.00
2018-08-03T12:28:20.417Z,42.00
2018-08-03T12:30:50.039Z,41.90
2018-08-03T12:33:19.790Z,41.80
2018-08-03T12:35:49.409Z,41.70
2018-08-03T12:38:18.913Z,41.60
2018-08-03T12:40:48.599Z,41.50
2018-08-03T12:43:18.281Z,41.30
2018-08-03T12:45:47.924Z,41.20
2018-08-03T12:48:17.581Z,41.00
2018-08-03T12:50:47.175Z,40.70
2018-08-03T12:53:16.803Z,40.50
2018-08-03T12:55:46.378Z,40.30
2018-08-03T12:58:15.917Z,40.30
2018-08-03T13:00:45.403Z,40.20
2018-08-03T13:03:14.958Z,40.30
2018-08-03T13:08:14.183Z,40.40
2018-08-03T13:10:43.784Z,40.40
2018-08-03T13:13:13.579Z,40.50
2018-08-03T13:15:43.330Z,40.60
2018-08-03T13:18:13.251Z,40.60
2018-08-03T13:20:42.941Z,40.70
2018-08-03T13:23:12.669Z,40.60
2018-08-03T13:25:42.388Z,40.60
2018-08-03T13:28:12.128Z,40.50
2018-08-03T13:30:41.905Z,40.50
2018-08-03T13:33:11.497Z,40.40
2018-08-03T13:35:41.163Z,40.30
2018-08-03T13:38:10.765Z,40.30
2018-08-03T13:40:40.459Z,40.20
2018-08-03T13:43:10.103Z,40.30
2018-08-03T13:45:39.836Z,40.30
2018-08-03T13:48:09.525Z,40.40
2018-08-03T13:50:39.137Z,40.50
2018-08-03T13:53:08.893Z,40.70
2018-08-03T13:55:38.444Z,40.80
2018-08-03T13:58:08.365Z,40.80
2018-08-03T14:00:39.574Z,40.80
2018-08-03T14:03:09.175Z,40.70
2018-08-03T14:05:38.861Z,40.60
2018-08-03T14:08:08.434Z,40.50
2018-08-03T14:10:38.056Z,40.50
2018-08-03T14:13:40.493Z,40.50
2018-08-03T14:16:36.473Z,40.40
2018-08-03T14:19:18.656Z,40.40
2018-08-03T14:21:48.222Z,40.30
2018-08-03T14:24:17.918Z,40.20
2018-08-03T14:26:47.718Z,40.00
2018-08-03T14:29:17.212Z,39.90
2018-08-03T14:31:46.830Z,39.80
2018-08-03T14:34:16.618Z,39.70
2018-08-03T14:36:46.346Z,39.70
2018-08-03T14:39:15.947Z,39.70
2018-08-03T14:41:45.624Z,39.70
2018-08-03T14:44:15.306Z,39.70
2018-08-03T14:46:44.884Z,39.70
2018-08-03T14:49:14.414Z,39.60
2018-08-03T14:51:43.887Z,39.60
2018-08-03T14:54:13.481Z,39.50
2018-08-03T14:56:43.170Z,39.50
2018-08-03T14:59:12.725Z,39.50
2018-08-03T15:01:42.309Z,39.50
2018-08-03T15:04:12.159Z,39.50
2018-08-03T15:06:41.806Z,39.50
2018-08-03T15:09:12.690Z,39.40
2018-08-03T15:11:42.345Z,39.40
2018-08-03T15:14:12.001Z,39.30
2018-08-03T15:16:41.702Z,39.20
2018-08-03T15:19:11.357Z,39.10
2018-08-03T15:22:11.877Z,39.00
2018-08-03T15:24:41.707Z,39.00
2018-08-03T15:27:11.477Z,39.00
2018-08-03T15:29:41.215Z,39.00
2018-08-03T15:32:10.707Z,39.10
2018-08-03T15:34:40.316Z,39.20
2018-08-03T15:37:09.985Z,39.30
2018-08-03T15:39:39.558Z,39.40
2018-08-03T15:42:09.224Z,39.40
2018-08-03T15:44:38.833Z,39.40
2018-08-03T15:47:08.357Z,39.40
2018-08-03T15:49:37.981Z,39.30
2018-08-03T15:52:07.569Z,39.20
2018-08-03T15:54:37.372Z,39.10
2018-08-03T15:57:07.370Z,39.10
2018-08-03T15:59:37.480Z,39.00
2018-08-03T16:02:07.650Z,39.00
2018-08-03T16:04:37.327Z,38.90
2018-08-03T16:07:07.096Z,38.80
2018-08-03T16:09:36.772Z,38.80
2018-08-03T16:12:06.359Z,38.80
2018-08-03T16:14:36.026Z,38.70
2018-08-03T16:17:05.658Z,38.60
2018-08-03T16:19:35.353Z,38.60
2018-08-03T16:22:05.067Z,38.50
2018-08-03T16:24:34.864Z,38.50
2018-08-03T16:27:04.448Z,38.40
2018-08-03T16:29:33.954Z,38.30
2018-08-03T16:32:03.624Z,38.20
2018-08-03T16:34:33.855Z,38.10
2018-08-03T16:37:03.857Z,37.90
2018-08-03T16:39:34.052Z,37.80
2018-08-03T16:42:03.714Z,37.60
2018-08-03T16:44:33.481Z,37.50
2018-08-03T16:47:03.235Z,37.30
2018-08-03T16:49:32.923Z,37.20
2018-08-03T16:52:02.802Z,37.00
2018-08-03T16:54:32.441Z,36.90
2018-08-03T16:57:02.349Z,36.80
2018-08-03T16:59:31.969Z,36.70
2018-08-03T17:02:01.733Z,36.50
2018-08-03T17:04:31.517Z,36.40
2018-08-03T17:07:01.080Z,36.40
2018-08-03T17:09:30.681Z,36.30
2018-08-03T17:14:29.391Z,36.10
2018-08-03T17:19:28.337Z,36.10
2018-08-03T17:21:57.906Z,36.00
2018-08-03T17:24:27.406Z,35.90
2018-08-03T17:26:59.941Z,35.90
2018-08-03T17:29:30.654Z,35.90
2018-08-03T17:32:00.174Z,35.70
2018-08-03T17:34:29.804Z,35.80
2018-08-03T17:36:59.536Z,35.70
2018-08-03T17:39:29.218Z,35.60
2018-08-03T17:41:58.842Z,35.60
2018-08-03T17:44:28.338Z,35.50
2018-08-03T17:46:57.918Z,35.50
2018-08-03T17:49:27.455Z,35.40
2018-08-03T17:51:57.186Z,35.40
2018-08-03T17:54:26.907Z,35.30
2018-08-03T17:56:56.531Z,35.30
2018-08-03T17:59:26.246Z,35.20
2018-08-03T18:04:24.877Z,35.20
2018-08-03T18:06:54.550Z,35.10
2018-08-03T18:09:24.209Z,35.10
2018-08-03T18:11:53.861Z,35.00
2018-08-03T18:14:23.449Z,35.00
2018-08-03T18:16:53.275Z,34.90
2018-08-03T18:19:22.869Z,34.90
2018-08-03T18:21:52.602Z,34.80
2018-08-03T18:24:22.309Z,34.80
2018-08-03T18:26:52.125Z,34.80
2018-08-03T18:29:21.710Z,34.70
2018-08-03T18:31:51.365Z,34.70
2018-08-03T18:34:20.904Z,34.70
2018-08-03T18:36:50.402Z,34.60
2018-08-03T18:39:20.004Z,34.50
2018-08-03T18:41:49.690Z,34.40
2018-08-03T18:44:30.026Z,34.30
2018-08-03T18:46:59.683Z,34.20
2018-08-03T18:49:29.373Z,34.10
2018-08-03T18:51:59.070Z,34.00
2018-08-03T18:54:28.844Z,33.90
2018-08-03T18:56:58.585Z,33.80
2018-08-03T18:59:28.218Z,33.60
2018-08-03T19:01:57.733Z,33.50
2018-08-03T19:04:27.189Z,33.40
2018-08-03T19:06:56.900Z,33.30
2018-08-03T19:09:26.561Z,33.10
2018-08-03T19:11:56.189Z,33.00
2018-08-03T19:14:25.727Z,32.90
2018-08-03T19:16:55.339Z,32.80
2018-08-03T19:19:24.909Z,32.60
2018-08-03T19:21:54.618Z,32.50
2018-08-03T19:24:24.268Z,32.40
2018-08-03T19:26:54.232Z,32.30
2018-08-03T19:29:23.938Z,32.20
2018-08-03T19:31:53.596Z,32.10
2018-08-03T19:34:23.262Z,32.00
2018-08-03T19:36:52.961Z,31.90
2018-08-03T19:39:22.737Z,31.80
2018-08-03T19:41:52.430Z,31.80
2018-08-03T19:44:22.109Z,31.70
2018-08-03T19:46:51.823Z,31.60
2018-08-03T19:49:21.485Z,31.60
2018-08-03T19:51:51.317Z,31.40
2018-08-03T19:54:21.013Z,31.40
2018-08-03T19:56:50.731Z,31.30
2018-08-03T19:59:21.162Z,31.20
2018-08-03T20:01:50.897Z,31.20
2018-08-03T20:04:20.545Z,31.10
2018-08-03T20:06:50.200Z,31.00
2018-08-03T20:09:19.891Z,30.90
2018-08-03T20:11:49.689Z,30.80
2018-08-03T20:14:19.285Z,30.70
2018-08-03T20:16:48.994Z,30.70
2018-08-03T20:19:18.648Z,30.60
2018-08-03T20:21:48.343Z,30.60
2018-08-03T20:26:47.326Z,30.40
2018-08-03T20:29:17.186Z,30.40
2018-08-03T20:31:46.911Z,30.30
2018-08-03T20:34:16.503Z,30.30
2018-08-03T20:41:44.570Z,30.10
2018-08-03T20:44:14.318Z,30.10
2018-08-03T20:46:44.042Z,30.10
2018-08-03T20:51:43.024Z,29.90
2018-08-03T20:54:12.679Z,29.90
2018-08-03T20:56:42.345Z,29.90
2018-08-03T20:59:12.015Z,29.90
2018-08-03T21:01:41.791Z,29.80
2018-08-03T21:04:11.487Z,29.80
2018-08-03T21:06:41.093Z,29.70
2018-08-03T21:09:12.150Z,29.70
2018-08-03T21:14:11.317Z,29.60
2018-08-03T21:16:41.023Z,29.60
2018-08-03T21:19:10.714Z,29.50
2018-08-03T21:21:40.367Z,29.50
2018-08-03T21:24:10.067Z,29.50
2018-08-03T21:26:39.797Z,29.40
2018-08-03T21:29:09.615Z,29.40
2018-08-03T21:31:39.281Z,29.40
2018-08-03T21:34:09.107Z,29.30
2018-08-03T21:36:38.743Z,29.30
2018-08-03T21:39:11.087Z,29.30
2018-08-03T21:41:40.789Z,29.30
2018-08-03T21:44:10.550Z,29.30
2018-08-03T21:46:40.097Z,29.30
2018-08-03T21:51:38.961Z,29.20
2018-08-03T21:54:08.542Z,29.10
2018-08-03T21:56:38.185Z,29.00
2018-08-03T21:59:07.850Z,29.00
2018-08-03T22:04:06.881Z,28.80
2018-08-03T22:06:36.507Z,28.70
2018-08-03T22:09:09.108Z,28.60
2018-08-03T22:11:38.802Z,28.50
2018-08-03T22:14:08.538Z,28.50
2018-08-03T22:16:38.236Z,28.50
2018-08-03T22:19:07.864Z,28.40
2018-08-03T22:21:37.468Z,28.40
2018-08-03T22:24:07.071Z,28.30
2018-08-03T22:26:36.761Z,28.20
2018-08-03T22:29:06.493Z,28.20
2018-08-03T22:31:36.061Z,28.10
2018-08-03T22:34:05.721Z,28.00
2018-08-03T22:36:35.293Z,28.00
2018-08-03T22:39:07.181Z,27.90
2018-08-03T22:41:36.767Z,27.90
2018-08-03T22:44:06.454Z,27.80
2018-08-03T22:46:36.121Z,27.70
2018-08-03T22:49:05.784Z,27.70
2018-08-03T22:51:35.428Z,27.60
2018-08-03T22:54:05.138Z,27.50
2018-08-03T22:56:34.823Z,27.50
2018-08-03T22:59:04.598Z,27.40
2018-08-03T23:01:34.306Z,27.30
2018-08-03T23:04:04.000Z,27.30
2018-08-03T23:06:33.692Z,27.20
2018-08-03T23:09:03.372Z,27.20
2018-08-03T23:11:32.995Z,27.20
2018-08-03T23:14:02.675Z,27.10
2018-08-03T23:16:32.266Z,27.00
2018-08-03T23:19:01.925Z,27.00
2018-08-03T23:21:31.682Z,26.90
2018-08-03T23:24:01.237Z,26.80
2018-08-03T23:26:30.965Z,26.80
2018-08-03T23:29:00.596Z,26.70
2018-08-03T23:31:30.357Z,26.70
2018-08-03T23:33:59.905Z,26.60
2018-08-03T23:36:29.577Z,26.60
2018-08-03T23:38:59.223Z,26.50
2018-08-03T23:41:28.849Z,26.40
2018-08-03T23:43:58.529Z,26.40
2018-08-03T23:46:28.305Z,26.30
2018-08-03T23:48:58.065Z,26.20
2018-08-03T23:51:27.734Z,26.20
2018-08-03T23:53:57.439Z,26.10
2018-08-03T23:56:27.151Z,26.10
2018-08-03T23:58:56.734Z,26.10
